createdAt,value
2023-01-10T00:00:01.113Z,1002.67
2023-01-10T00:01:01.100Z,1002.71
2023-01-10T00:02:01.090Z,1002.63
2023-01-10T00:03:01.083Z,1002.75
2023-01-10T00:04:01.068Z,1002.77
2023-01-10T00:05:01.105Z,1002.82
2023-01-10T00:06:01.053Z,1002.80
2023-01-10T00:07:01.034Z,1002.88
2023-01-10T00:08:01.029Z,1002.93
2023-01-10T00:09:01.015Z,1002.96
2023-01-10T00:10:01.011Z,1002.92
2023-01-10T00:11:00.995Z,1002.93
2023-01-10T00:12:00.983Z,1002.98
2023-01-10T00:13:00.989Z,1002.98
2023-01-10T00:14:00.965Z,1002.94
2023-01-10T00:15:00.957Z,1002.99
2023-01-10T00:16:01.019Z,1003.03
2023-01-10T00:17:00.944Z,1003.10
2023-01-10T00:18:00.926Z,1003.04
2023-01-10T00:19:00.919Z,1003.09
2023-01-10T00:20:00.909Z,1003.09
2023-01-10T00:21:00.900Z,1003.16
2023-01-10T00:22:00.897Z,1003.16
2023-01-10T00:23:00.877Z,1003.19
2023-01-10T00:24:00.865Z,1003.18
2023-01-10T00:25:00.865Z,1003.14
2023-01-10T00:26:00.897Z,1003.17
2023-01-10T00:27:00.836Z,1003.17
2023-01-10T00:28:00.824Z,1003.20
2023-01-10T00:29:00.816Z,1003.19
2023-01-10T00:30:00.805Z,1003.23
2023-01-10T00:31:00.839Z,1003.27
2023-01-10T00:32:00.848Z,1003.27
2023-01-10T00:33:00.873Z,1003.27
2023-01-10T00:34:00.767Z,1003.26
2023-01-10T00:35:00.980Z,1003.29
2023-01-10T00:36:00.747Z,1003.33
2023-01-10T00:37:00.735Z,1003.28
2023-01-10T00:38:00.726Z,1003.31
2023-01-10T00:39:00.713Z,1003.34
2023-01-10T00:40:00.705Z,1003.30
2023-01-10T00:41:00.804Z,1003.33
2023-01-10T00:42:00.702Z,1003.36
2023-01-10T00:43:00.690Z,1003.33
2023-01-10T00:44:00.665Z,1003.34
2023-01-10T00:45:00.658Z,1003.34
2023-01-10T00:46:00.689Z,1003.34
2023-01-10T00:47:00.651Z,1003.39
2023-01-10T00:48:00.626Z,1003.39
2023-01-10T00:49:00.618Z,1003.44
2023-01-10T00:50:00.605Z,1003.42
2023-01-10T00:51:00.595Z,1003.41
2023-01-10T00:52:00.594Z,1003.42
2023-01-10T00:53:00.575Z,1003.42
2023-01-10T00:54:00.564Z,1003.42
2023-01-10T00:55:00.555Z,1003.42
2023-01-10T00:56:00.549Z,1003.46
2023-01-10T00:57:00.534Z,1003.47
2023-01-10T00:58:00.526Z,1003.46
2023-01-10T00:59:00.518Z,1003.51
2023-01-10T01:00:00.520Z,1003.54
2023-01-10T01:01:00.593Z,1003.53
2023-01-10T01:02:00.520Z,1003.52
2023-01-10T01:03:00.548Z,1003.60
2023-01-10T01:04:00.469Z,1003.56
2023-01-10T01:05:00.473Z,1003.58
2023-01-10T01:06:00.457Z,1003.56
2023-01-10T01:07:00.436Z,1003.57
2023-01-10T01:08:00.434Z,1003.55
2023-01-10T01:09:00.426Z,1003.62
2023-01-10T01:10:00.415Z,1003.66
2023-01-10T01:11:00.407Z,1003.67
2023-01-10T01:12:00.394Z,1003.70
2023-01-10T01:13:00.392Z,1003.67
2023-01-10T01:14:00.365Z,1003.72
2023-01-10T01:15:00.357Z,1003.74
2023-01-10T01:16:00.548Z,1003.76
2023-01-10T01:17:00.331Z,1003.77
2023-01-10T01:18:00.324Z,1003.76
2023-01-10T01:19:00.311Z,1003.79
2023-01-10T01:20:00.299Z,1003.80
2023-01-10T01:21:00.289Z,1003.83
2023-01-10T01:22:00.279Z,1003.87
2023-01-10T01:23:00.270Z,1003.83
2023-01-10T01:24:00.261Z,1003.84
2023-01-10T01:25:00.255Z,1003.85
2023-01-10T01:26:00.256Z,1003.86
2023-01-10T01:27:00.231Z,1003.87
2023-01-10T01:28:00.222Z,1003.90
2023-01-10T01:29:00.211Z,1003.91
2023-01-10T01:30:00.209Z,1003.93
2023-01-10T01:31:00.249Z,1003.97
2023-01-10T01:32:00.181Z,1003.96
2023-01-10T01:33:00.171Z,1004.03
2023-01-10T01:34:00.155Z,1004.05
2023-01-10T01:35:00.147Z,1004.06
2023-01-10T01:36:00.143Z,1004.12
2023-01-10T01:37:00.131Z,1004.11
2023-01-10T01:38:00.113Z,1004.16
2023-01-10T01:39:00.107Z,1004.12
2023-01-10T01:40:00.102Z,1004.15
2023-01-10T01:41:00.100Z,1004.15
2023-01-10T01:42:00.107Z,1004.16
2023-01-10T01:43:00.090Z,1004.18
2023-01-10T01:44:00.061Z,1004.21
2023-01-10T01:45:00.052Z,1004.23
2023-01-10T01:46:00.114Z,1004.26
2023-01-10T01:47:00.040Z,1004.31
2023-01-10T01:48:00.023Z,1004.29
2023-01-10T01:49:00.003Z,1004.33
2023-01-10T01:49:59.995Z,1004.34
2023-01-10T01:50:59.981Z,1004.35
2023-01-10T01:51:59.967Z,1004.38
2023-01-10T01:52:59.967Z,1004.35
2023-01-10T01:53:59.960Z,1004.39
2023-01-10T01:54:59.939Z,1004.40
2023-01-10T01:55:59.927Z,1004.39
2023-01-10T01:56:59.923Z,1004.43
2023-01-10T01:57:59.907Z,1004.41
2023-01-10T01:58:59.895Z,1004.45
2023-01-10T01:59:59.882Z,1004.50
2023-01-10T02:00:59.954Z,1004.47
2023-01-10T02:01:59.909Z,1004.49
2023-01-10T02:03:02.875Z,1004.50
2023-01-10T02:03:59.891Z,1004.49
2023-01-10T02:04:59.831Z,1004.52
2023-01-10T02:05:59.819Z,1004.55
2023-01-10T02:06:59.815Z,1004.55
2023-01-10T02:07:59.824Z,1004.60
2023-01-10T02:08:59.787Z,1004.60
2023-01-10T02:09:59.778Z,1004.59
2023-01-10T02:10:59.771Z,1004.61
2023-01-10T02:11:59.755Z,1004.62
2023-01-10T02:12:59.747Z,1004.64
2023-01-10T02:13:59.733Z,1004.65
2023-01-10T02:14:59.731Z,1004.66
2023-01-10T02:15:59.718Z,1004.69
2023-01-10T02:16:59.708Z,1004.67
2023-01-10T02:17:59.693Z,1004.67
2023-01-10T02:18:59.684Z,1004.66
2023-01-10T02:19:59.672Z,1004.71
2023-01-10T02:20:59.661Z,1004.71
2023-01-10T02:21:59.650Z,1004.73
2023-01-10T02:22:59.655Z,1004.73
2023-01-10T02:23:59.635Z,1004.73
2023-01-10T02:24:59.617Z,1004.77
2023-01-10T02:25:59.610Z,1004.75
2023-01-10T02:26:59.597Z,1004.78
2023-01-10T02:27:59.718Z,1004.79
2023-01-10T02:28:59.577Z,1004.81
2023-01-10T02:29:59.560Z,1004.82
2023-01-10T02:30:59.580Z,1004.84
2023-01-10T02:31:59.552Z,1004.86
2023-01-10T02:33:05.020Z,1004.83
2023-01-10T02:33:59.525Z,1004.85
2023-01-10T02:34:59.510Z,1004.87
2023-01-10T02:35:59.517Z,1004.91
2023-01-10T02:36:59.489Z,1004.88
2023-01-10T02:37:59.518Z,1004.91
2023-01-10T02:38:59.475Z,1004.91
2023-01-10T02:39:59.464Z,1004.96
2023-01-10T02:40:59.444Z,1004.97
2023-01-10T02:41:59.442Z,1005.01
2023-01-10T02:42:59.427Z,1004.98
2023-01-10T02:43:59.412Z,1005.01
2023-01-10T02:44:59.399Z,1005.00
2023-01-10T02:45:59.396Z,1004.99
2023-01-10T02:46:59.380Z,1005.01
2023-01-10T02:47:59.366Z,1005.05
2023-01-10T02:48:59.359Z,1005.04
2023-01-10T02:49:59.345Z,1005.06
2023-01-10T02:50:59.338Z,1005.09
2023-01-10T02:51:59.323Z,1005.10
2023-01-10T02:52:59.313Z,1005.11
2023-01-10T02:53:59.302Z,1005.11
2023-01-10T02:54:59.291Z,1005.13
2023-01-10T02:55:59.276Z,1005.11
2023-01-10T02:56:59.270Z,1005.10
2023-01-10T02:57:59.263Z,1005.12
2023-01-10T02:58:59.249Z,1005.14
2023-01-10T02:59:59.240Z,1005.12
2023-01-10T03:00:59.242Z,1005.17
2023-01-10T03:01:59.365Z,1005.20
2023-01-10T03:02:59.208Z,1005.18
2023-01-10T03:03:59.192Z,1005.21
2023-01-10T03:04:59.246Z,1005.23
2023-01-10T03:05:59.173Z,1005.25
2023-01-10T03:06:59.183Z,1005.24
2023-01-10T03:07:59.152Z,1005.24
2023-01-10T03:08:59.146Z,1005.29
2023-01-10T03:09:59.129Z,1005.32
2023-01-10T03:10:59.123Z,1005.34
2023-01-10T03:11:59.105Z,1005.34
2023-01-10T03:12:59.106Z,1005.41
2023-01-10T03:13:59.085Z,1005.48
2023-01-10T03:14:59.082Z,1005.49
2023-01-10T03:15:59.105Z,1005.51
2023-01-10T03:16:59.056Z,1005.53
2023-01-10T03:17:59.041Z,1005.57
2023-01-10T03:18:59.033Z,1005.56
2023-01-10T03:19:59.021Z,1005.56
2023-01-10T03:20:59.010Z,1005.57
2023-01-10T03:21:59.020Z,1005.63
2023-01-10T03:22:58.995Z,1005.60
2023-01-10T03:23:58.982Z,1005.65
2023-01-10T03:24:58.964Z,1005.69
2023-01-10T03:25:58.956Z,1005.68
2023-01-10T03:26:58.944Z,1005.75
2023-01-10T03:27:58.932Z,1005.75
2023-01-10T03:28:58.922Z,1005.77
2023-01-10T03:29:58.911Z,1005.82
2023-01-10T03:30:58.996Z,1005.80
2023-01-10T03:31:58.888Z,1005.85
2023-01-10T03:32:58.880Z,1005.87
2023-01-10T03:33:58.871Z,1005.89
2023-01-10T03:34:58.861Z,1005.89
2023-01-10T03:35:58.847Z,1005.89
2023-01-10T03:36:58.834Z,1005.94
2023-01-10T03:37:58.826Z,1005.98
2023-01-10T03:38:58.820Z,1006.00
2023-01-10T03:39:58.801Z,1006.05
2023-01-10T03:40:58.793Z,1006.04
2023-01-10T03:41:58.810Z,1006.01
2023-01-10T03:42:58.766Z,1006.09
2023-01-10T03:43:58.763Z,1006.14
2023-01-10T03:44:58.751Z,1006.18
2023-01-10T03:45:58.740Z,1006.21
2023-01-10T03:46:58.732Z,1006.20
2023-01-10T03:47:58.717Z,1006.27
2023-01-10T03:48:58.711Z,1006.28
2023-01-10T03:49:58.699Z,1006.31
2023-01-10T03:50:58.685Z,1006.28
2023-01-10T03:51:58.673Z,1006.36
2023-01-10T03:52:58.664Z,1006.36
2023-01-10T03:53:58.656Z,1006.37
2023-01-10T03:54:58.642Z,1006.36
2023-01-10T03:55:58.632Z,1006.38
2023-01-10T03:56:58.620Z,1006.42
2023-01-10T03:57:58.611Z,1006.45
2023-01-10T03:58:58.599Z,1006.45
2023-01-10T03:59:58.590Z,1006.52
2023-01-10T04:00:58.687Z,1006.53
2023-01-10T04:01:58.701Z,1006.54
2023-01-10T04:02:58.557Z,1006.61
2023-01-10T04:03:58.587Z,1006.61
2023-01-10T04:04:58.538Z,1006.64
2023-01-10T04:05:58.527Z,1006.67
2023-01-10T04:06:58.553Z,1006.68
2023-01-10T04:07:58.501Z,1006.64
2023-01-10T04:08:58.493Z,1006.72
2023-01-10T04:09:58.481Z,1006.73
2023-01-10T04:10:58.472Z,1006.76
2023-01-10T04:11:58.462Z,1006.78
2023-01-10T04:12:58.450Z,1006.82
2023-01-10T04:13:58.447Z,1006.83
2023-01-10T04:14:58.427Z,1006.84
2023-01-10T04:15:58.516Z,1006.87
2023-01-10T04:16:58.407Z,1006.86
2023-01-10T04:17:58.411Z,1006.83
2023-01-10T04:18:58.398Z,1006.91
2023-01-10T04:19:58.372Z,1006.95
2023-01-10T04:20:58.376Z,1006.90
2023-01-10T04:21:58.349Z,1006.96
2023-01-10T04:22:58.365Z,1007.01
2023-01-10T04:23:58.365Z,1006.96
2023-01-10T04:24:58.644Z,1006.98
2023-01-10T04:25:58.312Z,1006.97
2023-01-10T04:26:58.309Z,1007.06
2023-01-10T04:27:58.330Z,1007.04
2023-01-10T04:28:58.282Z,1007.09
2023-01-10T04:29:58.265Z,1007.13
2023-01-10T04:30:58.264Z,1007.15
2023-01-10T04:31:58.254Z,1007.19
2023-01-10T04:32:58.244Z,1007.12
2023-01-10T04:33:58.235Z,1007.17
2023-01-10T04:34:58.219Z,1007.21
2023-01-10T04:35:58.204Z,1007.22
2023-01-10T04:36:58.207Z,1007.24
2023-01-10T04:37:58.195Z,1007.25
2023-01-10T04:38:58.174Z,1007.27
2023-01-10T04:39:58.161Z,1007.27
2023-01-10T04:40:58.154Z,1007.30
2023-01-10T04:41:58.141Z,1007.31
2023-01-10T04:42:58.140Z,1007.36
2023-01-10T04:43:58.118Z,1007.36
2023-01-10T04:44:58.106Z,1007.43
2023-01-10T04:45:58.223Z,1007.46
2023-01-10T04:46:58.086Z,1007.51
2023-01-10T04:47:58.079Z,1007.50
2023-01-10T04:48:58.068Z,1007.57
2023-01-10T04:49:58.057Z,1007.56
2023-01-10T04:50:58.048Z,1007.60
2023-01-10T04:51:58.034Z,1007.59
2023-01-10T04:52:58.024Z,1007.58
2023-01-10T04:53:58.017Z,1007.65
2023-01-10T04:54:58.007Z,1007.62
2023-01-10T04:55:57.995Z,1007.67
2023-01-10T04:56:57.982Z,1007.70
2023-01-10T04:57:57.972Z,1007.69
2023-01-10T04:58:57.965Z,1007.72
2023-01-10T04:59:57.948Z,1007.77
2023-01-10T05:00:57.990Z,1007.76
2023-01-10T05:01:58.010Z,1007.78
2023-01-10T05:02:58.024Z,1007.77
2023-01-10T05:03:57.913Z,1007.81
2023-01-10T05:04:57.916Z,1007.81
2023-01-10T05:05:57.889Z,1007.85
2023-01-10T05:06:57.885Z,1007.86
2023-01-10T05:07:57.867Z,1007.86
2023-01-10T05:08:57.854Z,1007.91
2023-01-10T05:09:57.844Z,1007.95
2023-01-10T05:10:57.836Z,1007.94
2023-01-10T05:11:57.824Z,1007.96
2023-01-10T05:12:57.814Z,1007.99
2023-01-10T05:13:57.803Z,1008.01
2023-01-10T05:14:57.801Z,1008.02
2023-01-10T05:15:57.786Z,1008.04
2023-01-10T05:16:57.778Z,1008.06
2023-01-10T05:17:57.762Z,1008.11
2023-01-10T05:18:57.753Z,1008.11
2023-01-10T05:19:57.740Z,1008.14
2023-01-10T05:20:57.730Z,1008.14
2023-01-10T05:21:57.718Z,1008.24
2023-01-10T05:22:57.712Z,1008.27
2023-01-10T05:23:57.697Z,1008.33
2023-01-10T05:24:57.687Z,1008.31
2023-01-10T05:25:57.700Z,1008.31
2023-01-10T05:26:57.668Z,1008.39
2023-01-10T05:27:57.655Z,1008.35
2023-01-10T05:28:57.645Z,1008.41
2023-01-10T05:29:57.631Z,1008.42
2023-01-10T05:30:57.629Z,1008.40
2023-01-10T05:31:57.625Z,1008.42
2023-01-10T05:32:57.602Z,1008.41
2023-01-10T05:33:57.604Z,1008.43
2023-01-10T05:34:57.586Z,1008.45
2023-01-10T05:35:57.570Z,1008.49
2023-01-10T05:36:57.561Z,1008.50
2023-01-10T05:37:57.562Z,1008.54
2023-01-10T05:38:57.537Z,1008.53
2023-01-10T05:39:57.527Z,1008.57
2023-01-10T05:40:58.962Z,1008.59
2023-01-10T05:41:57.508Z,1008.56
2023-01-10T05:42:57.497Z,1008.62
2023-01-10T05:43:57.494Z,1008.62
2023-01-10T05:44:57.480Z,1008.64
2023-01-10T05:45:57.495Z,1008.69
2023-01-10T05:46:57.455Z,1008.67
2023-01-10T05:47:57.442Z,1008.70
2023-01-10T05:48:57.437Z,1008.73
2023-01-10T05:49:57.429Z,1008.77
2023-01-10T05:50:57.416Z,1008.72
2023-01-10T05:51:57.412Z,1008.82
2023-01-10T05:52:57.392Z,1008.76
2023-01-10T05:53:57.382Z,1008.79
2023-01-10T05:54:57.371Z,1008.78
2023-01-10T05:55:57.367Z,1008.85
2023-01-10T05:56:57.355Z,1008.90
2023-01-10T05:57:57.353Z,1008.92
2023-01-10T05:59:07.864Z,1008.93
2023-01-10T05:59:57.318Z,1008.95
2023-01-10T06:00:57.344Z,1008.98
2023-01-10T06:01:57.333Z,1009.01
2023-01-10T06:02:57.310Z,1009.02
2023-01-10T06:03:57.282Z,1009.05
2023-01-10T06:04:57.263Z,1009.08
2023-01-10T06:05:57.276Z,1009.12
2023-01-10T06:06:57.245Z,1009.10
2023-01-10T06:07:57.233Z,1009.12
2023-01-10T06:08:57.222Z,1009.15
2023-01-10T06:09:57.218Z,1009.19
2023-01-10T06:10:57.201Z,1009.17
2023-01-10T06:11:57.196Z,1009.24
2023-01-10T06:12:57.183Z,1009.28
2023-01-10T06:13:57.183Z,1009.29
2023-01-10T06:14:57.160Z,1009.31
2023-01-10T06:15:57.167Z,1009.36
2023-01-10T06:16:57.154Z,1009.38
2023-01-10T06:17:57.130Z,1009.37
2023-01-10T06:18:57.119Z,1009.43
2023-01-10T06:19:57.107Z,1009.45
2023-01-10T06:20:57.098Z,1009.42
2023-01-10T06:21:57.092Z,1009.46
2023-01-10T06:22:57.079Z,1009.41
2023-01-10T06:23:57.070Z,1009.46
2023-01-10T06:24:57.057Z,1009.43
2023-01-10T06:25:57.051Z,1009.44
2023-01-10T06:26:57.035Z,1009.43
2023-01-10T06:27:57.024Z,1009.47
2023-01-10T06:28:57.270Z,1009.53
2023-01-10T06:29:57.006Z,1009.49
2023-01-10T06:30:57.039Z,1009.50
2023-01-10T06:31:56.986Z,1009.47
2023-01-10T06:32:56.971Z,1009.54
2023-01-10T06:33:56.961Z,1009.55
2023-01-10T06:34:56.952Z,1009.54
2023-01-10T06:35:56.940Z,1009.63
2023-01-10T06:36:56.928Z,1009.64
2023-01-10T06:37:56.920Z,1009.66
2023-01-10T06:38:56.912Z,1009.67
2023-01-10T06:39:56.897Z,1009.70
2023-01-10T06:40:56.888Z,1009.67
2023-01-10T06:41:56.881Z,1009.72
2023-01-10T06:42:56.866Z,1009.70
2023-01-10T06:43:56.854Z,1009.74
2023-01-10T06:44:56.841Z,1009.75
2023-01-10T06:45:56.927Z,1009.76
2023-01-10T06:46:56.946Z,1009.78
2023-01-10T06:47:56.821Z,1009.76
2023-01-10T06:48:56.902Z,1009.83
2023-01-10T06:49:56.791Z,1009.85
2023-01-10T06:50:56.793Z,1009.87
2023-01-10T06:51:56.784Z,1009.91
2023-01-10T06:52:56.760Z,1009.93
2023-01-10T06:53:56.752Z,1009.93
2023-01-10T06:54:56.738Z,1009.98
2023-01-10T06:55:56.730Z,1010.00
2023-01-10T06:56:56.717Z,1010.01
2023-01-10T06:57:56.715Z,1010.03
2023-01-10T06:58:56.697Z,1010.05
2023-01-10T06:59:56.688Z,1010.09
2023-01-10T07:00:56.757Z,1010.07
2023-01-10T07:01:56.725Z,1010.17
2023-01-10T07:02:56.656Z,1010.18
2023-01-10T07:03:56.670Z,1010.18
2023-01-10T07:04:56.636Z,1010.22
2023-01-10T07:05:56.626Z,1010.23
2023-01-10T07:06:56.613Z,1010.26
2023-01-10T07:07:56.604Z,1010.30
2023-01-10T07:08:56.594Z,1010.29
2023-01-10T07:09:56.585Z,1010.28
2023-01-10T07:10:56.578Z,1010.29
2023-01-10T07:11:56.558Z,1010.31
2023-01-10T07:12:56.557Z,1010.32
2023-01-10T07:13:56.548Z,1010.34
2023-01-10T07:14:56.531Z,1010.37
2023-01-10T07:15:56.555Z,1010.36
2023-01-10T07:16:56.508Z,1010.37
2023-01-10T07:17:56.499Z,1010.43
2023-01-10T07:18:56.489Z,1010.43
2023-01-10T07:19:56.479Z,1010.44
2023-01-10T07:20:56.473Z,1010.41
2023-01-10T07:21:56.457Z,1010.45
2023-01-10T07:22:56.447Z,1010.46
2023-01-10T07:23:56.436Z,1010.50
2023-01-10T07:24:56.428Z,1010.53
2023-01-10T07:25:56.415Z,1010.58
2023-01-10T07:26:56.418Z,1010.60
2023-01-10T07:27:56.392Z,1010.59
2023-01-10T07:28:56.395Z,1010.61
2023-01-10T07:29:56.377Z,1010.62
2023-01-10T07:30:56.401Z,1010.61
2023-01-10T07:31:56.353Z,1010.70
2023-01-10T07:32:56.357Z,1010.69
2023-01-10T07:33:56.354Z,1010.74
2023-01-10T07:34:56.320Z,1010.76
2023-01-10T07:35:56.322Z,1010.76
2023-01-10T07:36:56.321Z,1010.78
2023-01-10T07:37:56.290Z,1010.85
2023-01-10T07:38:56.277Z,1010.85
2023-01-10T07:39:56.273Z,1010.86
2023-01-10T07:40:56.258Z,1010.90
2023-01-10T07:41:56.256Z,1010.93
2023-01-10T07:42:56.251Z,1010.96
2023-01-10T07:43:56.229Z,1010.97
2023-01-10T07:44:56.218Z,1010.96
2023-01-10T07:45:56.215Z,1011.01
2023-01-10T07:46:56.215Z,1011.00
2023-01-10T07:47:56.181Z,1010.98
2023-01-10T07:48:56.175Z,1010.98
2023-01-10T07:49:56.173Z,1011.00
2023-01-10T07:50:56.156Z,1011.05
2023-01-10T07:51:56.146Z,1011.01
2023-01-10T07:52:56.139Z,1011.05
2023-01-10T07:53:56.121Z,1011.08
2023-01-10T07:54:56.117Z,1011.08
2023-01-10T07:55:56.100Z,1011.14
2023-01-10T07:56:56.091Z,1011.17
2023-01-10T07:57:56.085Z,1011.18
2023-01-10T07:58:56.069Z,1011.17
2023-01-10T07:59:56.057Z,1011.19
2023-01-10T08:00:56.075Z,1011.22
2023-01-10T08:01:56.038Z,1011.26
2023-01-10T08:02:56.136Z,1011.23
2023-01-10T08:03:56.119Z,1011.27
2023-01-10T08:04:56.005Z,1011.29
2023-01-10T08:05:55.995Z,1011.28
2023-01-10T08:06:55.991Z,1011.32
2023-01-10T08:07:55.977Z,1011.32
2023-01-10T08:08:55.964Z,1011.33
2023-01-10T08:09:55.954Z,1011.32
2023-01-10T08:10:55.947Z,1011.35
2023-01-10T08:11:55.928Z,1011.38
2023-01-10T08:12:57.716Z,1011.39
2023-01-10T08:13:55.917Z,1011.38
2023-01-10T08:14:55.902Z,1011.40
2023-01-10T08:15:55.952Z,1011.46
2023-01-10T08:16:55.881Z,1011.48
2023-01-10T08:17:55.870Z,1011.46
2023-01-10T08:18:55.861Z,1011.49
2023-01-10T08:19:55.849Z,1011.55
2023-01-10T08:20:55.839Z,1011.54
2023-01-10T08:21:55.826Z,1011.63
2023-01-10T08:22:55.818Z,1011.61
2023-01-10T08:23:55.809Z,1011.67
2023-01-10T08:24:55.796Z,1011.65
2023-01-10T08:25:55.787Z,1011.70
2023-01-10T08:26:55.778Z,1011.69
2023-01-10T08:27:55.779Z,1011.67
2023-01-10T08:28:55.757Z,1011.64
2023-01-10T08:29:55.745Z,1011.72
2023-01-10T08:30:55.895Z,1011.72
2023-01-10T08:31:55.732Z,1011.72
2023-01-10T08:32:55.707Z,1011.75
2023-01-10T08:33:55.714Z,1011.75
2023-01-10T08:34:55.693Z,1011.75
2023-01-10T08:35:55.697Z,1011.77
2023-01-10T08:36:55.675Z,1011.77
2023-01-10T08:37:55.661Z,1011.83
2023-01-10T08:38:55.659Z,1011.82
2023-01-10T08:39:55.639Z,1011.79
2023-01-10T08:40:55.655Z,1011.85
2023-01-10T08:41:55.620Z,1011.82
2023-01-10T08:42:55.610Z,1011.86
2023-01-10T08:43:55.599Z,1011.86
2023-01-10T08:44:55.590Z,1011.90
2023-01-10T08:45:55.583Z,1011.91
2023-01-10T08:46:55.617Z,1011.94
2023-01-10T08:47:55.901Z,1011.94
2023-01-10T08:48:55.550Z,1011.95
2023-01-10T08:49:55.547Z,1011.95
2023-01-10T08:50:55.530Z,1011.96
2023-01-10T08:51:55.522Z,1011.96
2023-01-10T08:52:55.507Z,1011.96
2023-01-10T08:53:55.516Z,1011.97
2023-01-10T08:54:55.492Z,1012.00
2023-01-10T08:55:55.475Z,1012.02
2023-01-10T08:56:55.477Z,1012.06
2023-01-10T08:57:55.458Z,1012.11
2023-01-10T08:58:55.451Z,1012.12
2023-01-10T08:59:55.436Z,1012.11
2023-01-10T09:00:55.465Z,1012.16
2023-01-10T09:01:55.459Z,1012.13
2023-01-10T09:02:55.449Z,1012.16
2023-01-10T09:03:55.411Z,1012.18
2023-01-10T09:04:55.385Z,1012.17
2023-01-10T09:05:55.375Z,1012.22
2023-01-10T09:06:55.365Z,1012.22
2023-01-10T09:07:55.356Z,1012.25
2023-01-10T09:08:55.343Z,1012.23
2023-01-10T09:09:55.338Z,1012.28
2023-01-10T09:10:55.323Z,1012.29
2023-01-10T09:11:55.312Z,1012.28
2023-01-10T09:12:55.340Z,1012.34
2023-01-10T09:13:55.294Z,1012.35
2023-01-10T09:14:55.285Z,1012.38
2023-01-10T09:15:55.307Z,1012.45
2023-01-10T09:16:55.273Z,1012.44
2023-01-10T09:17:55.252Z,1012.39
2023-01-10T09:18:55.249Z,1012.40
2023-01-10T09:19:55.233Z,1012.43
2023-01-10T09:20:55.220Z,1012.42
2023-01-10T09:21:55.226Z,1012.48
2023-01-10T09:22:55.203Z,1012.48
2023-01-10T09:23:55.196Z,1012.50
2023-01-10T09:24:55.180Z,1012.53
2023-01-10T09:25:55.173Z,1012.53
2023-01-10T09:26:55.221Z,1012.51
2023-01-10T09:27:55.162Z,1012.54
2023-01-10T09:28:55.154Z,1012.57
2023-01-10T09:29:55.133Z,1012.59
2023-01-10T09:30:55.122Z,1012.59
2023-01-10T09:31:55.113Z,1012.59
2023-01-10T09:32:55.102Z,1012.57
2023-01-10T09:33:55.091Z,1012.57
2023-01-10T09:34:55.081Z,1012.56
2023-01-10T09:35:55.071Z,1012.54
2023-01-10T09:36:55.060Z,1012.57
2023-01-10T09:37:55.051Z,1012.57
2023-01-10T09:38:55.042Z,1012.56
2023-01-10T09:39:55.052Z,1012.55
2023-01-10T09:40:55.017Z,1012.58
2023-01-10T09:41:55.015Z,1012.58
2023-01-10T09:42:55.003Z,1012.60
2023-01-10T09:43:55.004Z,1012.61
2023-01-10T09:44:54.986Z,1012.62
2023-01-10T09:45:54.974Z,1012.64
2023-01-10T09:46:55.047Z,1012.68
2023-01-10T09:47:54.954Z,1012.69
2023-01-10T09:48:54.942Z,1012.73
2023-01-10T09:49:54.931Z,1012.70
2023-01-10T09:50:54.924Z,1012.71
2023-01-10T09:51:54.916Z,1012.71
2023-01-10T09:52:54.899Z,1012.68
2023-01-10T09:53:57.725Z,1012.67
2023-01-10T09:54:54.882Z,1012.67
2023-01-10T09:55:54.868Z,1012.67
2023-01-10T09:56:54.859Z,1012.67
2023-01-10T09:57:54.864Z,1012.69
2023-01-10T09:58:54.840Z,1012.68
2023-01-10T09:59:55.580Z,1012.71
2023-01-10T10:00:54.832Z,1012.72
2023-01-10T10:01:54.816Z,1012.75
2023-01-10T10:02:54.838Z,1012.78
2023-01-10T10:03:54.918Z,1012.79
2023-01-10T10:04:54.784Z,1012.82
2023-01-10T10:06:03.672Z,1012.80
2023-01-10T10:06:54.760Z,1012.83
2023-01-10T10:07:54.743Z,1012.83
2023-01-10T10:08:54.757Z,1012.85
2023-01-10T10:09:54.734Z,1012.83
2023-01-10T10:10:54.739Z,1012.79
2023-01-10T10:11:54.711Z,1012.78
2023-01-10T10:12:54.700Z,1012.75
2023-01-10T10:13:54.698Z,1012.74
2023-01-10T10:14:54.695Z,1012.79
2023-01-10T10:15:54.725Z,1012.77
2023-01-10T10:16:54.679Z,1012.79
2023-01-10T10:17:54.652Z,1012.78
2023-01-10T10:18:54.651Z,1012.79
2023-01-10T10:19:54.637Z,1012.80
2023-01-10T10:20:54.624Z,1012.82
2023-01-10T10:21:54.620Z,1012.82
2023-01-10T10:22:54.604Z,1012.80
2023-01-10T10:23:54.594Z,1012.76
2023-01-10T10:24:54.584Z,1012.79
2023-01-10T10:25:54.572Z,1012.83
2023-01-10T10:26:54.571Z,1012.78
2023-01-10T10:27:54.553Z,1012.77
2023-01-10T10:28:55.414Z,1012.75
2023-01-10T10:29:54.534Z,1012.75
2023-01-10T10:30:54.555Z,1012.75
2023-01-10T10:31:54.514Z,1012.76
2023-01-10T10:32:54.510Z,1012.81
2023-01-10T10:33:54.495Z,1012.80
2023-01-10T10:34:54.488Z,1012.83
2023-01-10T10:35:54.477Z,1012.85
2023-01-10T10:36:54.470Z,1012.87
2023-01-10T10:37:54.457Z,1012.89
2023-01-10T10:38:54.471Z,1012.91
2023-01-10T10:39:54.441Z,1012.91
2023-01-10T10:40:54.430Z,1012.93
2023-01-10T10:41:54.418Z,1012.89
2023-01-10T10:42:54.410Z,1012.91
2023-01-10T10:43:54.401Z,1012.93
2023-01-10T10:44:54.425Z,1012.95
2023-01-10T10:45:54.428Z,1012.98
2023-01-10T10:46:54.377Z,1013.02
2023-01-10T10:47:54.364Z,1013.01
2023-01-10T10:48:54.353Z,1013.05
2023-01-10T10:49:54.339Z,1013.04
2023-01-10T10:50:54.355Z,1013.03
2023-01-10T10:51:54.356Z,1013.02
2023-01-10T10:52:54.316Z,1013.05
2023-01-10T10:53:54.300Z,1013.04
2023-01-10T10:54:54.296Z,1013.10
2023-01-10T10:55:54.284Z,1013.07
2023-01-10T10:56:54.272Z,1013.14
2023-01-10T10:58:00.213Z,1013.13
2023-01-10T10:58:54.266Z,1013.19
2023-01-10T10:59:54.246Z,1013.20
2023-01-10T11:00:54.338Z,1013.26
2023-01-10T11:01:54.400Z,1013.26
2023-01-10T11:02:54.217Z,1013.20
2023-01-10T11:03:54.211Z,1013.22
2023-01-10T11:04:54.289Z,1013.25
2023-01-10T11:05:54.195Z,1013.22
2023-01-10T11:06:54.179Z,1013.25
2023-01-10T11:07:54.169Z,1013.23
2023-01-10T11:08:54.160Z,1013.29
2023-01-10T11:09:54.147Z,1013.32
2023-01-10T11:10:54.152Z,1013.24
2023-01-10T11:11:54.132Z,1013.29
2023-01-10T11:12:54.161Z,1013.29
2023-01-10T11:13:54.114Z,1013.24
2023-01-10T11:14:54.115Z,1013.21
2023-01-10T11:15:56.126Z,1013.13
2023-01-10T11:16:54.089Z,1013.15
2023-01-10T11:17:54.078Z,1013.11
2023-01-10T11:18:54.075Z,1013.10
2023-01-10T11:19:54.055Z,1013.08
2023-01-10T11:20:54.049Z,1013.06
2023-01-10T11:21:54.043Z,1013.07
2023-01-10T11:22:54.028Z,1013.08
2023-01-10T11:23:54.044Z,1013.06
2023-01-10T11:24:54.012Z,1013.08
2023-01-10T11:25:54.000Z,1013.08
2023-01-10T11:26:53.993Z,1013.08
2023-01-10T11:27:53.987Z,1013.12
2023-01-10T11:28:53.971Z,1013.13
2023-01-10T11:29:53.963Z,1013.17
2023-01-10T11:30:53.952Z,1013.20
2023-01-10T11:31:53.989Z,1013.21
2023-01-10T11:32:53.935Z,1013.21
2023-01-10T11:33:53.930Z,1013.19
2023-01-10T11:34:54.051Z,1013.13
2023-01-10T11:35:53.908Z,1013.15
2023-01-10T11:36:53.897Z,1013.10
2023-01-10T11:37:53.889Z,1013.11
2023-01-10T11:38:53.882Z,1013.13
2023-01-10T11:39:53.868Z,1013.15
2023-01-10T11:40:53.882Z,1013.13
2023-01-10T11:41:53.849Z,1013.19
2023-01-10T11:42:53.841Z,1013.23
2023-01-10T11:43:53.835Z,1013.26
2023-01-10T11:44:53.827Z,1013.27
2023-01-10T11:45:53.879Z,1013.28
2023-01-10T11:46:53.812Z,1013.36
2023-01-10T11:47:53.806Z,1013.34
2023-01-10T11:49:05.477Z,1013.33
2023-01-10T11:49:53.779Z,1013.36
2023-01-10T11:50:53.768Z,1013.37
2023-01-10T11:51:53.767Z,1013.37
2023-01-10T11:52:53.760Z,1013.35
2023-01-10T11:53:53.742Z,1013.39
2023-01-10T11:54:53.752Z,1013.40
2023-01-10T11:55:53.724Z,1013.45
2023-01-10T11:56:53.716Z,1013.48
2023-01-10T11:57:53.705Z,1013.50
2023-01-10T11:58:53.701Z,1013.49
2023-01-10T11:59:53.692Z,1013.46
2023-01-10T12:00:53.718Z,1013.52
2023-01-10T12:01:53.704Z,1013.44
2023-01-10T12:02:53.661Z,1013.45
2023-01-10T12:03:53.651Z,1013.45
2023-01-10T12:04:53.647Z,1013.43